Time;durP1;ratioP1;P1;durP2;ratioP2;P2;SDS_P1;SDS_P2;PMS_P1;PMS_P2;Temp;Humidity;BMP_temperature;BMP_pressure;BME280_temperature;BME280_humidity;BME280_pressure;Samples;Min_cycle;Max_cycle;Signal;HPM_P1;HPM_P2
2022/12/24 00:00:34;;;;;;;2.92;1.65;;;;;;;;;;4995890;28;20045;-61
2022/12/24 00:03:16;;;;;;;2.42;1.75;;;;;;;;;;4996546;28;20061;-61
2022/12/24 00:05:42;;;;;;;4.50;2.15;;;;;;;;;;4995163;28;20314;-61
2022/12/24 00:08:08;;;;;;;3.67;2.10;;;;;;;;;;4996336;28;20050;-63
2022/12/24 00:10:34;;;;;;;5.70;2.25;;;;;;;;;;5000686;28;20045;-60
2022/12/24 00:13:00;;;;;;;4.72;2.67;;;;;;;;;;4999506;28;20050;-66
2022/12/24 00:15:26;;;;;;;3.00;2.10;;;;;;;;;;5002791;28;20605;-62
2022/12/24 00:17:52;;;;;;;3.17;1.73;;;;;;;;;;4997885;28;20126;-61
2022/12/24 00:20:18;;;;;;;9.30;4.00;;;;;;;;;;5000947;28;20115;-66
2022/12/24 00:22:44;;;;;;;2.97;1.63;;;;;;;;;;4998599;28;20054;-65
2022/12/24 00:25:09;;;;;;;2.75;1.20;;;;;;;;;;4981216;28;20046;-60
2022/12/24 00:27:35;;;;;;;2.65;1.55;;;;;;;;;;5000802;28;20049;-62
2022/12/24 00:30:01;;;;;;;2.20;1.45;;;;;;;;;;5001623;28;20053;-61
2022/12/24 00:32:27;;;;;;;4.30;1.55;;;;;;;;;;5000118;28;20819;-62
2022/12/24 00:34:53;;;;;;;3.10;1.58;;;;;;;;;;5001355;28;20089;-62
2022/12/24 00:37:19;;;;;;;4.72;1.70;;;;;;;;;;5002355;28;20038;-62
2022/12/24 00:39:45;;;;;;;4.45;1.83;;;;;;;;;;4983398;28;20064;-60
2022/12/24 00:42:11;;;;;;;2.13;1.63;;;;;;;;;;5000875;28;20072;-63
2022/12/24 00:44:37;;;;;;;3.75;1.70;;;;;;;;;;4998949;28;20053;-62
2022/12/24 00:47:03;;;;;;;2.95;1.27;;;;;;;;;;5000653;28;20049;-63
2022/12/24 00:49:29;;;;;;;3.60;1.60;;;;;;;;;;5000728;28;20095;-61
2022/12/24 00:51:55;;;;;;;2.33;1.50;;;;;;;;;;5000809;28;20595;-62
2022/12/24 00:54:21;;;;;;;3.95;1.70;;;;;;;;;;4997982;28;20112;-63
2022/12/24 00:56:47;;;;;;;2.03;1.50;;;;;;;;;;4999087;28;20068;-64
2022/12/24 00:59:13;;;;;;;1.55;1.30;;;;;;;;;;5002603;28;20054;-64
2022/12/24 01:01:39;;;;;;;1.42;1.20;;;;;;;;;;5001359;28;20852;-61
2022/12/24 01:06:49;;;;;;;1.60;1.40;;;;;;;;;;5002210;28;20429;-61
2022/12/24 01:09:15;;;;;;;6.65;1.50;;;;;;;;;;4999346;28;20608;-61
2022/12/24 01:11:41;;;;;;;2.38;1.50;;;;;;;;;;4997093;28;20085;-62
2022/12/24 01:14:07;;;;;;;4.18;1.50;;;;;;;;;;4998151;28;20580;-62
2022/12/24 01:16:33;;;;;;;2.78;1.80;;;;;;;;;;4999737;28;20142;-61
2022/12/24 01:18:59;;;;;;;2.88;1.50;;;;;;;;;;4993828;28;20580;-65
2022/12/24 01:21:25;;;;;;;1.80;1.48;;;;;;;;;;4991842;28;20050;-63
2022/12/24 01:23:51;;;;;;;2.63;1.38;;;;;;;;;;4995258;28;20045;-61
2022/12/24 01:26:17;;;;;;;3.55;1.40;;;;;;;;;;4995412;28;20042;-62
2022/12/24 01:28:43;;;;;;;3.13;1.48;;;;;;;;;;4996906;28;20433;-62
2022/12/24 01:31:14;;;;;;;1.90;1.50;;;;;;;;;;4998298;28;20531;-61
2022/12/24 01:33:41;;;;;;;2.72;1.60;;;;;;;;;;4994242;28;20151;-61
2022/12/24 01:36:08;;;;;;;2.00;1.38;;;;;;;;;;4995835;28;20061;-62
2022/12/24 01:38:34;;;;;;;2.03;1.40;;;;;;;;;;4997297;28;20054;-64
2022/12/24 01:43:44;;;;;;;6.60;1.70;;;;;;;;;;4996103;28;20064;-62
2022/12/24 01:46:17;;;;;;;2.78;1.48;;;;;;;;;;4997318;28;20050;-64
2022/12/24 01:48:54;;;;;;;2.13;1.40;;;;;;;;;;4998707;28;20046;-60
2022/12/24 01:51:26;;;;;;;3.05;1.65;;;;;;;;;;4992050;28;20097;-61
2022/12/24 01:54:30;;;;;;;4.35;1.80;;;;;;;;;;4995889;28;20149;-61
2022/12/24 01:57:09;;;;;;;4.65;1.60;;;;;;;;;;4969054;28;20502;-62
2022/12/24 01:59:37;;;;;;;3.78;1.58;;;;;;;;;;4995038;28;20528;-61
2022/12/24 02:02:03;;;;;;;2.50;1.70;;;;;;;;;;4995193;28;20509;-63
2022/12/24 02:05:03;;;;;;;2.97;1.42;;;;;;;;;;4995579;28;20058;-61
2022/12/24 02:07:30;;;;;;;2.72;1.70;;;;;;;;;;4960377;28;20061;-62
2022/12/24 02:09:58;;;;;;;3.63;1.70;;;;;;;;;;4996014;28;20054;-61
2022/12/24 02:12:26;;;;;;;3.05;1.52;;;;;;;;;;4995716;28;20119;-61
2022/12/24 02:14:52;;;;;;;3.53;1.80;;;;;;;;;;4993414;28;20054;-60
2022/12/24 02:17:57;;;;;;;3.47;1.52;;;;;;;;;;4998158;28;20046;-61
2022/12/24 02:20:59;;;;;;;3.33;1.70;;;;;;;;;;4997116;28;20042;-60
2022/12/24 02:23:57;;;;;;;2.03;1.60;;;;;;;;;;4996611;28;20339;-64
2022/12/24 02:26:37;;;;;;;3.17;1.70;;;;;;;;;;4995976;28;20041;-62
2022/12/24 02:29:45;;;;;;;3.08;1.80;;;;;;;;;;4998360;28;20062;-60
2022/12/24 02:32:16;;;;;;;2.60;1.67;;;;;;;;;;4926176;29;20781;-61
2022/12/24 02:35:19;;;;;;;3.33;2.00;;;;;;;;;;4928072;29;20055;-61
2022/12/24 02:38:00;;;;;;;3.22;1.70;;;;;;;;;;4898416;29;20127;-61
2022/12/24 02:40:33;;;;;;;1.73;1.33;;;;;;;;;;4903798;29;20048;-61
2022/12/24 02:43:04;;;;;;;2.15;1.50;;;;;;;;;;4896765;29;20415;-61
2022/12/24 02:45:33;;;;;;;4.53;1.63;;;;;;;;;;4897927;29;20496;-63
2022/12/24 02:47:59;;;;;;;3.75;1.77;;;;;;;;;;4900102;29;20102;-66
2022/12/24 02:50:26;;;;;;;2.53;1.63;;;;;;;;;;4901087;29;20059;-62
2022/12/24 02:52:52;;;;;;;3.00;1.70;;;;;;;;;;4896245;29;20068;-61
2022/12/24 02:55:26;;;;;;;1.90;1.42;;;;;;;;;;4903227;29;20070;-63
2022/12/24 02:58:05;;;;;;;3.17;1.70;;;;;;;;;;4902510;29;20095;-63
2022/12/24 03:01:17;;;;;;;2.08;1.55;;;;;;;;;;4902585;29;20067;-62
2022/12/24 03:03:51;;;;;;;2.17;1.60;;;;;;;;;;4895694;29;20048;-61
2022/12/24 03:06:31;;;;;;;2.47;1.80;;;;;;;;;;4904065;29;20619;-62
2022/12/24 03:09:05;;;;;;;2.42;1.50;;;;;;;;;;4920494;29;20067;-60
2022/12/24 03:11:33;;;;;;;5.05;2.10;;;;;;;;;;4921967;29;20106;-59
2022/12/24 03:14:00;;;;;;;3.00;1.90;;;;;;;;;;4944387;28;20070;-60
2022/12/24 03:16:27;;;;;;;2.30;1.65;;;;;;;;;;4995712;28;20299;-60
2022/12/24 03:18:54;;;;;;;2.75;1.75;;;;;;;;;;4995060;28;20054;-61
2022/12/24 03:21:37;;;;;;;2.47;1.73;;;;;;;;;;5000155;28;20062;-61
2022/12/24 03:24:03;;;;;;;2.40;1.75;;;;;;;;;;4977605;28;20080;-63
2022/12/24 03:26:31;;;;;;;4.05;2.00;;;;;;;;;;4990730;28;20061;-64
2022/12/24 03:28:57;;;;;;;4.07;1.70;;;;;;;;;;4996951;28;20066;-64
2022/12/24 03:31:24;;;;;;;3.67;1.67;;;;;;;;;;4996332;28;20061;-65
2022/12/24 03:33:50;;;;;;;2.72;1.77;;;;;;;;;;4997960;28;20054;-62
2022/12/24 03:36:17;;;;;;;3.38;1.95;;;;;;;;;;4997354;28;20505;-62
2022/12/24 03:38:42;;;;;;;2.60;1.83;;;;;;;;;;4999004;28;20045;-59
2022/12/24 03:41:09;;;;;;;3.55;2.10;;;;;;;;;;4976031;28;20483;-64
2022/12/24 03:43:35;;;;;;;4.53;2.50;;;;;;;;;;4991667;28;20054;-63
2022/12/24 03:46:05;;;;;;;5.20;2.70;;;;;;;;;;4996390;28;20678;-62
2022/12/24 03:48:34;;;;;;;2.47;1.70;;;;;;;;;;4993906;28;20041;-62
2022/12/24 03:51:01;;;;;;;4.70;2.05;;;;;;;;;;4995044;28;20045;-61
2022/12/24 03:53:26;;;;;;;5.45;2.10;;;;;;;;;;4995361;28;20132;-61
2022/12/24 03:55:52;;;;;;;3.70;2.15;;;;;;;;;;4992453;28;20647;-61
2022/12/24 03:58:18;;;;;;;3.15;2.13;;;;;;;;;;4998110;28;20038;-61
2022/12/24 04:00:44;;;;;;;3.75;1.90;;;;;;;;;;4994624;28;20053;-60
2022/12/24 04:03:10;;;;;;;3.40;2.25;;;;;;;;;;4993967;28;20057;-62
2022/12/24 04:05:36;;;;;;;3.15;1.88;;;;;;;;;;4993540;28;21159;-62
2022/12/24 04:08:02;;;;;;;3.15;1.75;;;;;;;;;;4996218;28;20054;-61
2022/12/24 04:10:28;;;;;;;2.67;1.77;;;;;;;;;;4995620;28;20069;-60
2022/12/24 04:12:54;;;;;;;4.53;1.70;;;;;;;;;;4995701;28;20045;-61
2022/12/24 04:15:20;;;;;;;2.45;1.63;;;;;;;;;;4990704;28;20050;-61
2022/12/24 04:17:46;;;;;;;2.97;2.08;;;;;;;;;;4996400;28;20042;-61
2022/12/24 04:20:12;;;;;;;4.18;1.67;;;;;;;;;;4997101;28;20054;-62
2022/12/24 04:22:38;;;;;;;2.47;1.70;;;;;;;;;;4996681;28;20080;-60
2022/12/24 04:25:04;;;;;;;3.45;2.10;;;;;;;;;;4995505;28;20058;-62
2022/12/24 04:27:30;;;;;;;3.60;2.00;;;;;;;;;;4992751;28;20049;-60
2022/12/24 04:29:56;;;;;;;4.45;2.20;;;;;;;;;;4997056;28;20054;-61
2022/12/24 04:32:24;;;;;;;3.13;1.90;;;;;;;;;;4994530;28;20137;-62
2022/12/24 04:34:51;;;;;;;3.88;1.80;;;;;;;;;;4996400;28;20050;-61
2022/12/24 04:37:16;;;;;;;4.40;2.05;;;;;;;;;;4997197;28;20057;-59
2022/12/24 04:39:42;;;;;;;2.78;1.75;;;;;;;;;;4998603;28;20053;-60
2022/12/24 04:42:08;;;;;;;4.88;2.15;;;;;;;;;;4996511;28;20610;-60
2022/12/24 04:44:34;;;;;;;3.15;1.90;;;;;;;;;;4996286;28;20056;-61
2022/12/24 04:47:00;;;;;;;5.38;1.80;;;;;;;;;;4994123;28;20046;-62
2022/12/24 04:49:26;;;;;;;6.22;2.03;;;;;;;;;;4998261;28;20505;-60
2022/12/24 04:51:52;;;;;;;2.80;1.90;;;;;;;;;;4994023;28;20367;-61
2022/12/24 04:54:18;;;;;;;3.72;1.83;;;;;;;;;;4990444;28;20266;-61
2022/12/24 04:56:43;;;;;;;2.85;1.90;;;;;;;;;;5000926;28;20505;-70
2022/12/24 04:59:09;;;;;;;3.05;2.05;;;;;;;;;;4979661;28;20056;-62
2022/12/24 05:01:35;;;;;;;3.60;1.83;;;;;;;;;;4998726;28;20046;-60
2022/12/24 05:04:01;;;;;;;4.40;2.03;;;;;;;;;;5000609;28;20572;-62
2022/12/24 05:06:31;;;;;;;3.90;2.03;;;;;;;;;;5000961;28;20038;-60
2022/12/24 05:08:58;;;;;;;2.65;1.65;;;;;;;;;;4998110;28;20049;-61
2022/12/24 05:11:24;;;;;;;4.95;2.17;;;;;;;;;;4994719;28;20050;-61
2022/12/24 05:13:50;;;;;;;3.70;2.05;;;;;;;;;;5001341;28;20469;-60
2022/12/24 05:16:19;;;;;;;2.85;2.22;;;;;;;;;;4998478;28;20058;-61
2022/12/24 05:18:45;;;;;;;4.07;1.90;;;;;;;;;;4994373;28;20061;-62
2022/12/24 05:21:16;;;;;;;3.25;1.98;;;;;;;;;;4999173;28;20534;-60
2022/12/24 05:26:40;;;;;;;3.97;2.00;;;;;;;;;;4998921;28;20049;-61
2022/12/24 05:29:08;;;;;;;3.38;1.95;;;;;;;;;;4997783;28;20552;-62
2022/12/24 05:31:34;;;;;;;4.65;2.00;;;;;;;;;;4997227;28;20530;-61
2022/12/24 05:34:02;;;;;;;3.55;2.20;;;;;;;;;;4999269;28;20062;-60
2022/12/24 05:36:27;;;;;;;5.78;2.40;;;;;;;;;;5002007;28;20119;-61
2022/12/24 05:38:53;;;;;;;3.53;2.20;;;;;;;;;;4995970;28;20051;-60
2022/12/24 05:41:19;;;;;;;3.58;2.17;;;;;;;;;;4997295;28;20429;-62
2022/12/24 05:43:45;;;;;;;3.20;1.98;;;;;;;;;;4997835;28;20050;-60
2022/12/24 05:46:14;;;;;;;3.38;2.10;;;;;;;;;;4997288;28;20084;-63
2022/12/24 05:48:40;;;;;;;4.03;2.20;;;;;;;;;;4979229;28;20061;-60
2022/12/24 05:51:09;;;;;;;4.45;2.10;;;;;;;;;;4997030;28;20438;-60
2022/12/24 05:53:35;;;;;;;4.70;2.25;;;;;;;;;;4997878;28;20988;-62
2022/12/24 05:56:09;;;;;;;2.90;1.92;;;;;;;;;;4997554;28;20054;-60
2022/12/24 05:58:36;;;;;;;2.83;1.90;;;;;;;;;;4997299;28;20066;-63
2022/12/24 06:01:03;;;;;;;2.97;1.98;;;;;;;;;;4997484;28;20050;-60
2022/12/24 06:03:30;;;;;;;3.50;2.08;;;;;;;;;;4978149;28;20050;-61
2022/12/24 06:06:12;;;;;;;2.85;2.08;;;;;;;;;;4999299;28;20378;-63
2022/12/24 06:08:40;;;;;;;4.35;2.53;;;;;;;;;;4995957;28;20156;-61
2022/12/24 06:11:09;;;;;;;5.38;2.58;;;;;;;;;;4993531;28;20050;-61
2022/12/24 06:13:35;;;;;;;4.50;2.13;;;;;;;;;;4994924;28;20383;-60
2022/12/24 06:16:03;;;;;;;5.63;2.00;;;;;;;;;;4997826;28;20046;-64
2022/12/24 06:18:30;;;;;;;3.90;2.00;;;;;;;;;;4999002;28;20516;-62
2022/12/24 06:20:57;;;;;;;6.75;2.20;;;;;;;;;;4995990;28;20168;-63
2022/12/24 06:23:24;;;;;;;4.22;2.25;;;;;;;;;;4995570;28;20137;-61
2022/12/24 06:25:51;;;;;;;4.32;1.73;;;;;;;;;;4998512;28;20163;-61
2022/12/24 06:28:17;;;;;;;4.03;2.10;;;;;;;;;;4997192;28;20053;-63
2022/12/24 06:30:48;;;;;;;3.55;1.98;;;;;;;;;;4994952;28;20629;-63
2022/12/24 06:33:15;;;;;;;3.17;1.80;;;;;;;;;;4981964;28;20097;-65
2022/12/24 06:35:44;;;;;;;2.88;1.92;;;;;;;;;;4998341;28;20100;-61
2022/12/24 06:38:10;;;;;;;4.68;2.00;;;;;;;;;;4999276;28;20058;-60
2022/12/24 06:40:39;;;;;;;2.72;1.88;;;;;;;;;;4997355;28;20057;-61
2022/12/24 06:43:05;;;;;;;4.20;2.13;;;;;;;;;;4998673;28;20521;-61
2022/12/24 06:45:31;;;;;;;3.65;1.90;;;;;;;;;;4995991;28;20105;-63
2022/12/24 06:47:58;;;;;;;4.57;2.25;;;;;;;;;;4995032;28;20053;-60
2022/12/24 06:50:24;;;;;;;2.67;1.98;;;;;;;;;;4999502;28;20045;-62
2022/12/24 06:52:50;;;;;;;3.70;2.00;;;;;;;;;;4996166;28;20088;-63
2022/12/24 06:55:16;;;;;;;5.05;2.15;;;;;;;;;;4996244;28;20840;-64
2022/12/24 06:57:42;;;;;;;5.82;2.25;;;;;;;;;;4994329;28;20042;-61
2022/12/24 07:00:09;;;;;;;4.25;1.88;;;;;;;;;;4994565;28;20054;-61
2022/12/24 07:02:42;;;;;;;3.67;2.17;;;;;;;;;;4996207;28;20062;-60
2022/12/24 07:05:12;;;;;;;3.20;2.05;;;;;;;;;;5000525;28;20068;-61
2022/12/24 07:07:40;;;;;;;5.88;2.30;;;;;;;;;;4996396;28;20049;-63
2022/12/24 07:10:09;;;;;;;3.60;2.15;;;;;;;;;;4995354;28;20079;-67
2022/12/24 07:12:36;;;;;;;5.85;2.30;;;;;;;;;;4991384;28;20058;-60
2022/12/24 07:15:01;;;;;;;6.18;2.17;;;;;;;;;;4999185;28;20062;-62
2022/12/24 07:17:28;;;;;;;3.63;2.05;;;;;;;;;;4998315;28;20054;-67
2022/12/24 07:19:53;;;;;;;3.88;2.00;;;;;;;;;;4994952;28;20045;-62
2022/12/24 07:22:20;;;;;;;3.53;2.17;;;;;;;;;;4994457;28;20522;-63
2022/12/24 07:24:45;;;;;;;3.90;2.38;;;;;;;;;;4995161;28;20050;-65
2022/12/24 07:27:12;;;;;;;6.70;2.22;;;;;;;;;;4977368;28;20563;-66
2022/12/24 07:29:39;;;;;;;3.72;2.13;;;;;;;;;;4995077;28;20375;-61
2022/12/24 07:32:05;;;;;;;3.63;1.92;;;;;;;;;;4999293;28;20685;-61
2022/12/24 07:34:31;;;;;;;3.45;2.08;;;;;;;;;;5000102;28;20054;-64
2022/12/24 07:36:57;;;;;;;3.30;1.90;;;;;;;;;;4998408;28;20053;-64
2022/12/24 07:39:23;;;;;;;3.80;2.00;;;;;;;;;;4997712;28;20053;-63
2022/12/24 07:41:49;;;;;;;3.25;2.10;;;;;;;;;;4995338;28;20545;-62
2022/12/24 07:44:15;;;;;;;6.38;2.03;;;;;;;;;;4996419;28;20501;-63
2022/12/24 07:46:42;;;;;;;5.97;2.85;;;;;;;;;;4996593;28;20046;-63
2022/12/24 07:49:09;;;;;;;5.00;2.05;;;;;;;;;;4996916;28;20104;-61
2022/12/24 07:51:35;;;;;;;4.05;1.90;;;;;;;;;;4996677;28;20556;-64
2022/12/24 07:54:03;;;;;;;3.30;1.98;;;;;;;;;;4999536;28;20042;-62
2022/12/24 07:56:30;;;;;;;4.05;1.83;;;;;;;;;;4997654;28;20046;-65
2022/12/24 07:58:56;;;;;;;6.97;2.50;;;;;;;;;;4993050;28;20503;-64
2022/12/24 08:01:22;;;;;;;5.13;2.72;;;;;;;;;;4995151;28;20054;-62
2022/12/24 08:03:50;;;;;;;4.20;1.92;;;;;;;;;;4999297;28;20046;-63
2022/12/24 08:06:16;;;;;;;4.32;2.17;;;;;;;;;;4992585;28;20108;-60
2022/12/24 08:08:42;;;;;;;6.82;1.92;;;;;;;;;;4989879;28;20046;-62
2022/12/24 08:11:08;;;;;;;4.00;2.17;;;;;;;;;;4994480;28;20185;-63
2022/12/24 08:13:34;;;;;;;3.97;2.20;;;;;;;;;;4995595;28;20128;-67
2022/12/24 08:16:00;;;;;;;4.38;2.20;;;;;;;;;;4993537;28;20050;-61
2022/12/24 08:18:26;;;;;;;5.65;2.00;;;;;;;;;;4998689;28;20529;-62
2022/12/24 08:20:52;;;;;;;7.70;2.50;;;;;;;;;;4996995;28;20053;-63
2022/12/24 08:23:18;;;;;;;5.75;2.40;;;;;;;;;;4992003;28;20057;-67
2022/12/24 08:25:46;;;;;;;4.93;2.13;;;;;;;;;;4979076;28;20061;-61
2022/12/24 08:28:14;;;;;;;3.80;2.47;;;;;;;;;;4979841;28;20053;-58
2022/12/24 08:30:40;;;;;;;3.65;2.10;;;;;;;;;;4989158;28;20484;-61
2022/12/24 08:33:07;;;;;;;4.35;2.50;;;;;;;;;;4977431;28;20059;-61
2022/12/24 08:35:33;;;;;;;5.15;2.78;;;;;;;;;;4981994;28;21134;-60
2022/12/24 08:37:59;;;;;;;6.45;3.10;;;;;;;;;;4990061;28;20056;-61
2022/12/24 08:40:25;;;;;;;6.40;2.88;;;;;;;;;;4984496;28;20053;-62
2022/12/24 08:42:51;;;;;;;5.03;2.90;;;;;;;;;;4983839;28;20060;-61
2022/12/24 08:45:18;;;;;;;5.32;2.55;;;;;;;;;;4982089;28;20054;-62
2022/12/24 08:47:44;;;;;;;6.95;3.70;;;;;;;;;;4979458;28;20084;-66
2022/12/24 08:50:10;;;;;;;7.68;3.03;;;;;;;;;;4985044;28;20054;-63
2022/12/24 08:52:36;;;;;;;6.05;2.97;;;;;;;;;;4985611;28;20793;-63
2022/12/24 08:55:03;;;;;;;7.00;2.92;;;;;;;;;;4986883;28;20080;-63
2022/12/24 08:57:29;;;;;;;7.05;3.13;;;;;;;;;;4986604;28;20107;-60
2022/12/24 08:59:55;;;;;;;3.78;2.50;;;;;;;;;;4987756;28;20057;-62
2022/12/24 09:02:22;;;;;;;6.93;3.03;;;;;;;;;;4993780;28;20053;-63
2022/12/24 09:04:48;;;;;;;5.10;2.55;;;;;;;;;;4985354;28;20069;-62
2022/12/24 09:07:14;;;;;;;6.75;3.10;;;;;;;;;;4990071;28;20057;-67
2022/12/24 09:09:40;;;;;;;5.22;2.70;;;;;;;;;;4990205;28;20452;-61
2022/12/24 09:12:06;;;;;;;6.95;3.05;;;;;;;;;;4995050;28;20050;-64
2022/12/24 09:14:33;;;;;;;3.85;2.65;;;;;;;;;;5001087;28;20046;-62
2022/12/24 09:16:59;;;;;;;8.20;2.72;;;;;;;;;;5001798;28;20049;-62
2022/12/24 09:19:26;;;;;;;6.20;2.70;;;;;;;;;;4998167;28;20041;-61
2022/12/24 09:21:52;;;;;;;7.78;3.22;;;;;;;;;;4994203;28;20050;-61
2022/12/24 09:24:18;;;;;;;13.05;3.40;;;;;;;;;;5000514;28;20069;-60
2022/12/24 09:26:48;;;;;;;7.40;3.10;;;;;;;;;;4997351;28;20042;-61
2022/12/24 09:29:14;;;;;;;7.07;3.00;;;;;;;;;;4995361;28;20057;-64
2022/12/24 09:31:41;;;;;;;4.93;2.42;;;;;;;;;;4997897;28;20042;-61
2022/12/24 09:34:07;;;;;;;8.27;3.50;;;;;;;;;;5000948;28;20141;-63
2022/12/24 09:36:34;;;;;;;6.97;3.20;;;;;;;;;;4997610;28;20042;-61
2022/12/24 09:39:00;;;;;;;8.90;2.90;;;;;;;;;;4993457;28;20056;-60
2022/12/24 09:41:54;;;;;;;6.88;3.15;;;;;;;;;;4997680;28;20046;-63
2022/12/24 09:44:42;;;;;;;7.55;3.45;;;;;;;;;;4967037;28;20050;-62
2022/12/24 09:47:21;;;;;;;6.57;3.30;;;;;;;;;;4998218;28;20068;-64
2022/12/24 09:49:51;;;;;;;5.78;2.65;;;;;;;;;;4998657;28;20062;-60
2022/12/24 09:52:37;;;;;;;4.45;2.53;;;;;;;;;;4995765;28;20050;-62
2022/12/24 09:55:13;;;;;;;5.10;2.42;;;;;;;;;;4974157;28;20541;-64
2022/12/24 09:57:40;;;;;;;6.55;3.10;;;;;;;;;;5001158;28;20054;-61
2022/12/24 10:00:32;;;;;;;5.47;2.42;;;;;;;;;;4997749;28;20054;-63
2022/12/24 10:02:58;;;;;;;6.90;2.65;;;;;;;;;;4994994;28;20583;-60
2022/12/24 10:05:37;;;;;;;8.73;2.40;;;;;;;;;;4998437;28;20056;-60
2022/12/24 10:08:06;;;;;;;3.63;2.20;;;;;;;;;;4998764;28;20041;-64
2022/12/24 10:10:39;;;;;;;5.07;2.70;;;;;;;;;;4995710;28;20049;-63
2022/12/24 10:13:31;;;;;;;4.28;2.00;;;;;;;;;;4977419;28;20521;-62
2022/12/24 10:16:22;;;;;;;4.70;2.40;;;;;;;;;;4991138;28;20628;-60
2022/12/24 10:18:58;;;;;;;5.07;2.40;;;;;;;;;;4999597;28;20073;-62
2022/12/24 10:21:40;;;;;;;7.40;2.53;;;;;;;;;;4996967;28;20065;-60
2022/12/24 10:24:10;;;;;;;11.07;2.80;;;;;;;;;;4997409;28;20073;-65
2022/12/24 10:26:44;;;;;;;7.25;2.45;;;;;;;;;;4997341;28;20072;-62
2022/12/24 10:29:10;;;;;;;5.60;2.50;;;;;;;;;;4994975;28;20054;-64
2022/12/24 10:31:44;;;;;;;5.63;2.30;;;;;;;;;;5002320;28;20520;-65
2022/12/24 10:34:19;;;;;;;8.20;2.60;;;;;;;;;;5001065;28;20116;-66
2022/12/24 10:36:45;;;;;;;4.22;1.60;;;;;;;;;;5004474;28;20065;-63
2022/12/24 10:39:17;;;;;;;6.20;2.13;;;;;;;;;;5002838;28;20057;-67
2022/12/24 10:41:48;;;;;;;4.00;1.88;;;;;;;;;;5000399;28;20103;-67
2022/12/24 10:44:17;;;;;;;4.45;1.90;;;;;;;;;;4996644;28;20661;-62
2022/12/24 10:46:44;;;;;;;4.45;2.42;;;;;;;;;;4991025;28;20046;-63
2022/12/24 10:49:43;;;;;;;4.45;2.38;;;;;;;;;;4996355;28;20663;-65
2022/12/24 10:52:18;;;;;;;5.32;1.90;;;;;;;;;;4995565;28;20050;-63
2022/12/24 10:55:10;;;;;;;3.22;2.00;;;;;;;;;;4994643;28;20052;-61
2022/12/24 10:57:36;;;;;;;4.60;1.48;;;;;;;;;;4995674;28;20046;-60
2022/12/24 11:00:05;;;;;;;4.65;2.10;;;;;;;;;;4991208;28;20054;-66
2022/12/24 11:02:34;;;;;;;3.50;1.83;;;;;;;;;;4992412;28;20045;-63
2022/12/24 11:05:02;;;;;;;4.03;2.05;;;;;;;;;;4992624;28;20052;-66
2022/12/24 11:07:30;;;;;;;4.22;1.95;;;;;;;;;;4996797;28;20048;-64
2022/12/24 11:10:04;;;;;;;3.70;1.45;;;;;;;;;;4993255;28;20132;-62
2022/12/24 11:12:39;;;;;;;5.53;2.00;;;;;;;;;;4996917;28;20049;-62
2022/12/24 11:15:27;;;;;;;5.43;1.67;;;;;;;;;;4992290;28;20414;-60
2022/12/24 11:17:56;;;;;;;4.50;1.88;;;;;;;;;;4962124;28;20081;-64
2022/12/24 11:20:27;;;;;;;2.47;1.60;;;;;;;;;;4975106;28;20077;-67
2022/12/24 11:22:54;;;;;;;3.10;1.75;;;;;;;;;;4978553;28;20423;-66
2022/12/24 11:25:37;;;;;;;3.58;2.08;;;;;;;;;;4980092;28;20118;-62
2022/12/24 11:28:11;;;;;;;5.03;2.00;;;;;;;;;;4983307;28;20057;-66
2022/12/24 11:30:37;;;;;;;5.57;2.33;;;;;;;;;;4979744;28;20053;-65
2022/12/24 11:33:06;;;;;;;5.30;2.15;;;;;;;;;;4998151;28;20053;-63
2022/12/24 11:35:38;;;;;;;4.63;2.17;;;;;;;;;;4984591;28;20058;-61
2022/12/24 11:38:04;;;;;;;5.85;2.00;;;;;;;;;;4994200;28;20119;-63
2022/12/24 11:40:41;;;;;;;5.05;2.20;;;;;;;;;;4999122;28;20053;-64
2022/12/24 11:43:14;;;;;;;3.85;2.22;;;;;;;;;;4995943;28;20049;-61
2022/12/24 11:45:49;;;;;;;6.55;2.35;;;;;;;;;;4983192;28;20128;-64
2022/12/24 11:48:29;;;;;;;4.88;2.28;;;;;;;;;;4994519;28;20038;-62
2022/12/24 11:51:04;;;;;;;8.13;2.47;;;;;;;;;;4988245;28;20103;-65
2022/12/24 11:53:59;;;;;;;4.03;1.85;;;;;;;;;;4994501;28;20057;-58
2022/12/24 11:56:25;;;;;;;;;;;;;;;;;;4997674;28;20053;-60
2022/12/24 11:58:57;;;;;;;4.75;1.88;;;;;;;;;;4999290;28;19995;-61
2022/12/24 12:01:24;;;;;;;8.75;4.53;;;;;;;;;;5001674;28;20057;-64
2022/12/24 12:03:58;;;;;;;4.53;1.80;;;;;;;;;;4993557;28;20145;-61
2022/12/24 12:06:57;;;;;;;3.90;2.20;;;;;;;;;;4985787;28;20092;-61
2022/12/24 12:09:23;;;;;;;2.97;1.92;;;;;;;;;;5002309;28;20084;-64
2022/12/24 12:12:05;;;;;;;7.18;2.20;;;;;;;;;;5006424;28;20056;-66
2022/12/24 12:14:37;;;;;;;4.75;2.03;;;;;;;;;;4978362;28;20045;-64
2022/12/24 12:17:12;;;;;;;2.95;1.75;;;;;;;;;;5001525;28;20119;-66
2022/12/24 12:19:50;;;;;;;4.45;2.13;;;;;;;;;;4998526;28;20050;-63
2022/12/24 12:22:39;;;;;;;3.53;1.98;;;;;;;;;;4997833;28;20100;-63
2022/12/24 12:25:17;;;;;;;5.95;1.95;;;;;;;;;;5002735;28;20050;-61
2022/12/24 12:27:46;;;;;;;4.38;1.50;;;;;;;;;;4995558;28;20053;-60
2022/12/24 12:30:19;;;;;;;4.47;2.25;;;;;;;;;;4999893;28;20069;-60
2022/12/24 12:33:03;;;;;;;4.38;2.13;;;;;;;;;;4993047;28;20046;-64
2022/12/24 12:35:41;;;;;;;4.22;2.15;;;;;;;;;;4991900;28;20050;-64
2022/12/24 12:38:15;;;;;;;4.35;2.20;;;;;;;;;;4996006;28;20061;-62
2022/12/24 12:41:12;;;;;;;4.65;2.00;;;;;;;;;;4996776;28;21205;-62
2022/12/24 12:43:59;;;;;;;5.10;2.33;;;;;;;;;;4992936;28;20108;-62
2022/12/24 12:46:40;;;;;;;5.57;2.40;;;;;;;;;;5000151;28;20050;-64
2022/12/24 12:49:42;;;;;;;5.68;2.10;;;;;;;;;;4990682;28;20149;-64
2022/12/24 12:52:21;;;;;;;4.25;2.08;;;;;;;;;;4998384;28;20088;-61
2022/12/24 12:55:22;;;;;;;7.70;2.08;;;;;;;;;;4988642;28;20121;-62
2022/12/24 12:57:51;;;;;;;4.78;2.20;;;;;;;;;;4992345;28;20053;-63
2022/12/24 13:00:18;;;;;;;4.13;2.38;;;;;;;;;;4989009;28;20081;-64
2022/12/24 13:02:47;;;;;;;4.57;2.10;;;;;;;;;;4970677;28;20073;-63
2022/12/24 13:05:38;;;;;;;6.43;1.83;;;;;;;;;;5000987;28;20064;-62
2022/12/24 13:08:42;;;;;;;2.63;1.63;;;;;;;;;;5001088;28;20042;-62
2022/12/24 13:11:13;;;;;;;5.68;1.90;;;;;;;;;;4994727;28;20537;-65
2022/12/24 13:14:01;;;;;;;4.55;2.28;;;;;;;;;;4996837;28;20050;-62
2022/12/24 13:16:46;;;;;;;4.35;1.90;;;;;;;;;;5002602;28;20379;-65
2022/12/24 13:19:32;;;;;;;5.43;2.22;;;;;;;;;;4998423;28;20100;-64
2022/12/24 13:21:58;;;;;;;3.83;1.90;;;;;;;;;;4993437;28;20050;-61
2022/12/24 13:24:27;;;;;;;5.00;1.70;;;;;;;;;;4999102;28;20107;-63
2022/12/24 13:27:00;;;;;;;3.08;1.67;;;;;;;;;;4994643;28;20442;-62
2022/12/24 13:29:42;;;;;;;3.45;1.85;;;;;;;;;;5003056;28;20045;-65
2022/12/24 13:33:00;;;;;;;3.85;1.80;;;;;;;;;;4996630;28;20141;-63
2022/12/24 13:35:30;;;;;;;6.55;1.88;;;;;;;;;;4996817;28;20066;-62
2022/12/24 13:38:28;;;;;;;4.30;1.90;;;;;;;;;;4998662;28;20261;-62
2022/12/24 13:40:55;;;;;;;3.15;1.80;;;;;;;;;;4999241;28;20058;-61
2022/12/24 13:43:21;;;;;;;4.80;1.70;;;;;;;;;;5001672;28;20700;-65
2022/12/24 13:45:49;;;;;;;3.03;1.70;;;;;;;;;;4997682;28;20050;-61
2022/12/24 13:48:15;;;;;;;4.32;1.63;;;;;;;;;;5001272;28;20736;-63
2022/12/24 13:50:50;;;;;;;1.92;1.40;;;;;;;;;;5002350;28;20054;-66
2022/12/24 13:53:27;;;;;;;5.38;1.80;;;;;;;;;;4994436;28;20053;-63
2022/12/24 13:56:00;;;;;;;2.53;1.52;;;;;;;;;;4999392;28;20065;-62
2022/12/24 13:58:26;;;;;;;2.30;1.50;;;;;;;;;;5006091;28;20042;-62
2022/12/24 14:00:56;;;;;;;4.97;1.75;;;;;;;;;;5001646;28;20061;-64
2022/12/24 14:03:30;;;;;;;2.80;1.55;;;;;;;;;;5000069;28;20050;-60
2022/12/24 14:06:00;;;;;;;2.00;1.38;;;;;;;;;;5003675;28;20474;-63
2022/12/24 14:08:51;;;;;;;2.40;1.65;;;;;;;;;;4986140;28;20169;-64
2022/12/24 14:11:20;;;;;;;3.88;1.75;;;;;;;;;;5002692;28;20097;-66
2022/12/24 14:13:46;;;;;;;4.63;1.58;;;;;;;;;;5003860;28;20050;-64
2022/12/24 14:16:23;;;;;;;2.63;1.67;;;;;;;;;;5005704;28;20061;-63
2022/12/24 14:19:14;;;;;;;4.13;1.98;;;;;;;;;;5003612;28;20038;-62
2022/12/24 14:21:54;;;;;;;4.15;1.40;;;;;;;;;;4993921;28;20053;-63
2022/12/24 14:24:24;;;;;;;4.10;1.50;;;;;;;;;;4999134;28;20049;-66
2022/12/24 14:26:57;;;;;;;2.53;1.42;;;;;;;;;;5001078;28;20049;-63
2022/12/24 14:29:41;;;;;;;2.53;1.52;;;;;;;;;;4999158;28;20128;-63
2022/12/24 14:32:15;;;;;;;6.32;2.17;;;;;;;;;;4999475;28;20053;-63
2022/12/24 14:34:41;;;;;;;4.40;1.65;;;;;;;;;;4997856;28;20683;-67
2022/12/24 14:37:10;;;;;;;3.83;1.73;;;;;;;;;;5000955;28;21793;-63
2022/12/24 14:39:45;;;;;;;3.22;1.50;;;;;;;;;;5002857;28;20132;-63
2022/12/24 14:42:43;;;;;;;3.40;1.60;;;;;;;;;;5000767;28;20056;-65
2022/12/24 14:45:28;;;;;;;3.00;1.55;;;;;;;;;;4999612;28;20046;-63
2022/12/24 14:48:14;;;;;;;2.40;1.60;;;;;;;;;;5002311;28;20050;-65
2022/12/24 14:50:55;;;;;;;2.80;1.40;;;;;;;;;;4995312;28;20069;-64
2022/12/24 14:53:48;;;;;;;6.15;1.60;;;;;;;;;;5005216;28;20057;-64
2022/12/24 14:56:16;;;;;;;3.80;1.73;;;;;;;;;;5001317;28;20050;-64
2022/12/24 14:58:44;;;;;;;6.38;1.50;;;;;;;;;;5004939;28;20528;-64
2022/12/24 15:01:26;;;;;;;8.10;2.08;;;;;;;;;;5000639;28;20465;-64
2022/12/24 15:04:22;;;;;;;3.03;1.55;;;;;;;;;;5000569;28;20061;-65
2022/12/24 15:06:56;;;;;;;3.90;1.60;;;;;;;;;;4982711;28;20057;-67
2022/12/24 15:09:28;;;;;;;3.75;1.90;;;;;;;;;;5001975;28;20736;-67
2022/12/24 15:11:57;;;;;;;4.03;1.60;;;;;;;;;;4992727;28;20076;-67
2022/12/24 15:14:26;;;;;;;3.72;1.70;;;;;;;;;;4995036;28;20072;-67
2022/12/24 15:17:00;;;;;;;3.03;1.50;;;;;;;;;;5000805;28;20060;-66